Helena, MT

4:48 AM MDT on June 30, 2015 (GMT -0600)
Helena Regional | | Change Station
CLOSE
Current Station
Airport
Location: Helena,
Elevation: 3865 ft
Nearby Weather Stations

Elev 3865 ft 46.60 °N, 111.99 °W | Updated 7 hours ago

Overcast
Overcast
69 °F
Feels Like 69 °F
N
4
Wind Variable Wind from WSW
Gusts mph

Today
High -- | Low -- °F
--% Chance of Precip.
Yesterday
High -- | Low -- °F
Precip. -- in
5:37 AM 9:25 PM
Waxing Gibbous, 97% visible
Pressure 30.04 in
Visibility 6.0 miles
Clouds Overcast 10000 ft
Dew Point 56 °F
Humidity 63%
Rainfall 0.06 in
Snow Depth Not available.
UV 0 out of 12
Pollen 5.30 out of 12
Air Quality Not available.
Flu Activity Sporadic
METAR KHLN 300253Z 28006G15KT 6SM -RA OVC100 23/17 A3011 RMK AO2 PK WND 22029/0207 LTG DSNT W-NE RAB09E40B52 TSB19E34 SLP173 P0006 60006 T02280167 53026

More Conditions Fewer Conditions

Pressure 30.04 in
Visibility 6.0 miles
Clouds Overcast 10000 ft
Dew Point 56 °F
Humidity 63%
Rainfall 0.06 in
Snow Depth Not available.
UV 0 out of 12
Pollen 5.30 out of 12
Air Quality Not available.
Flu Activity Sporadic
METAR KHLN 300253Z 28006G15KT 6SM -RA OVC100 23/17 A3011 RMK AO2 PK WND 22029/0207 LTG DSNT W-NE RAB09E40B52 TSB19E34 SLP173 P0006 60006 T02280167 53026

More Conditions Fewer Conditions

10-Day Weather Forecast

Almanac

Astronomy

Jun. 30, 2015 Rise Set
Actual Time
Civil Twilight
Nautical Twilight
Astronomical Twilight
Moon
Length of Visible Light
Length of Day
Tomorrow will be .
, % of the Moon is Illuminated

Today's Extremes

State Highs State Lows

Community

WunderPhotos

Upload Photos

1,833,977 photos uploaded!

WunderBlogs® & News

Nearby

Air Quality

  Air Quality AQ Index Pollutant
Not available.

Snow Depth

Station Depth Elevation

Earthquake Activity

City Distance Mag. Time & Date
Minimum magnitude displayed is 2.5.

Coastal Water Temperatures

Place Temperature

Stations

Nearby Weather Stations

Station Location Temp. Windchill Dew Point Humidity Wind Precip. Elev Updated Type